Rechercher aéroport 
image banner adimage banner adimage banner ad
image banner ad

SJPU - Pau D`Arco Airport

Situé à Itaituba, Brazil

ICAO - SJPU, IATA -

Données fournies par Airmate  

Information générale

Coordonnées: S5°1'53" W42°43'7"
Élévation : 459 feet MSL.
Variation magnétique : -21° East
Voir autres Aéroports à Piauí

Données opérationnelles

Special qualification required
Heure actuelle UTC:
Heure actuelle locale:
METAR: SBTE 161300Z 10006KT 9999 FEW020 30/23 Q1011
TAF: TAF SBTE 160840Z 1612/1624 12010KT 9999 BKN025 TX33/1617Z TN26/1624Z BECMG 1616/1618 SCT025 BECMG 1619/1621 35010KT TS SCT025 FEW030CB BECMG 1622/1624 17010KT NSW SCT020 RMK PGS
Voir NOTAMs / SUP AIP / TFR affectant cet aéroport [VIEW]
Fréquences de communication: [VIEW]

Pistes:

Identifiant RWYQFULongueur (ft)Largeur (ft)SurfaceLDA (ft)
0182049ASPH
1982049ASPH

Coordonnées de l'aéroport

Adresse: Itaituba Brazil

Autres services d'aviation

Clubs d'aviation (sans but lucratif)

Clube De Ultraleve Do Piauí

Clube De Ultraleve Do Piauí

Vue satellite de SJPU